Decoded Metar for KIZG (FRYEBURG in ME, USA) (IATA:IZG) | Meteo·Mobile Aviation Weather
aviador You're here:

KIZG Decoded Metar

FRYEBURG in ME, USA
Report Time2019-02-23 21:54:00
UTC Time2019-02-23 22:49:48
Flight Rules vfr VFR
WindCalm
Visibility9999 m
Phenomena:N/A
Clouds:N/A
Expected CloudBase > 4,800 ft AGL from Temp-Dew spread
CeilingNone
Temp02°C (ISA -12)
Dew Point-10°C (41% RH)
AAT-1.0°C
QNH1027 hPa
Density Alt-1,463 ft
Elevation443 ft
Report Wrong Elevation
Raw Report
KIZG 232154Z AUTO 00000KT 10SM CLR 02/M10 A3034 RMK AO2 SLP284
T00171100=

Extra information for KIZG:More info

Metar Taf Metar & Taf Last 4 Metars F.Rules Stats Wind Profile Meteogram Temp Stats Airport Information Weather charts Add Link Nearby VenuesMetar ALERT Operation Metar Decoded Social comments

AIRNAV info for KIZG